sensor_id;sensor_type;location;lat;lon;timestamp;temperature;humidity
71039;SHT30;58692;43.212;27.908;2024-01-07T00:00:01;13.51;82.25
71039;SHT30;58692;43.212;27.908;2024-01-07T00:02:27;13.83;80.78
71039;SHT30;58692;43.212;27.908;2024-01-07T00:04:52;13.80;80.78
71039;SHT30;58692;43.212;27.908;2024-01-07T00:07:18;13.46;81.91
71039;SHT30;58692;43.212;27.908;2024-01-07T00:09:45;13.26;82.67
71039;SHT30;58692;43.212;27.908;2024-01-07T00:12:11;13.04;83.45
71039;SHT30;58692;43.212;27.908;2024-01-07T00:14:37;12.94;83.84
71039;SHT30;58692;43.212;27.908;2024-01-07T00:17:02;12.77;84.29
71039;SHT30;58692;43.212;27.908;2024-01-07T00:19:28;12.71;84.66
71039;SHT30;58692;43.212;27.908;2024-01-07T00:21:56;12.60;85.01
71039;SHT30;58692;43.212;27.908;2024-01-07T00:24:22;12.51;85.37
71039;SHT30;58692;43.212;27.908;2024-01-07T00:26:51;12.44;85.53
71039;SHT30;58692;43.212;27.908;2024-01-07T00:29:16;12.33;85.97
71039;SHT30;58692;43.212;27.908;2024-01-07T00:31:42;12.32;86.09
71039;SHT30;58692;43.212;27.908;2024-01-07T00:34:08;12.25;86.31
71039;SHT30;58692;43.212;27.908;2024-01-07T00:36:33;12.22;86.43
71039;SHT30;58692;43.212;27.908;2024-01-07T00:38:59;12.19;86.53
71039;SHT30;58692;43.212;27.908;2024-01-07T00:41:25;12.13;86.66
71039;SHT30;58692;43.212;27.908;2024-01-07T00:43:50;12.16;86.55
71039;SHT30;58692;43.212;27.908;2024-01-07T00:46:16;12.22;86.49
71039;SHT30;58692;43.212;27.908;2024-01-07T00:48:42;12.22;86.36
71039;SHT30;58692;43.212;27.908;2024-01-07T00:51:07;12.26;86.26
71039;SHT30;58692;43.212;27.908;2024-01-07T00:53:34;12.25;86.16
71039;SHT30;58692;43.212;27.908;2024-01-07T00:55:59;12.32;85.85
71039;SHT30;58692;43.212;27.908;2024-01-07T00:58:25;12.39;85.56
71039;SHT30;58692;43.212;27.908;2024-01-07T01:00:51;12.46;85.15
71039;SHT30;58692;43.212;27.908;2024-01-07T01:03:19;12.51;84.86
71039;SHT30;58692;43.212;27.908;2024-01-07T01:05:45;12.60;84.68
71039;SHT30;58692;43.212;27.908;2024-01-07T01:08:10;12.71;84.08
71039;SHT30;58692;43.212;27.908;2024-01-07T01:10:36;12.77;83.79
71039;SHT30;58692;43.212;27.908;2024-01-07T01:13:02;12.93;83.12
71039;SHT30;58692;43.212;27.908;2024-01-07T01:15:28;13.05;82.71
71039;SHT30;58692;43.212;27.908;2024-01-07T01:17:53;13.14;82.47
71039;SHT30;58692;43.212;27.908;2024-01-07T01:20:19;13.26;82.01
71039;SHT30;58692;43.212;27.908;2024-01-07T01:22:45;13.38;81.38
71039;SHT30;58692;43.212;27.908;2024-01-07T01:25:10;13.79;79.73
71039;SHT30;58692;43.212;27.908;2024-01-07T01:27:36;13.73;79.84
71039;SHT30;58692;43.212;27.908;2024-01-07T01:30:02;13.77;79.66
71039;SHT30;58692;43.212;27.908;2024-01-07T01:32:28;13.80;79.43
71039;SHT30;58692;43.212;27.908;2024-01-07T01:34:53;13.67;79.78
71039;SHT30;58692;43.212;27.908;2024-01-07T01:37:19;13.58;80.58
71039;SHT30;58692;43.212;27.908;2024-01-07T01:39:45;13.44;81.07
71039;SHT30;58692;43.212;27.908;2024-01-07T01:42:10;13.24;81.77
71039;SHT30;58692;43.212;27.908;2024-01-07T01:44:36;13.38;81.12
71039;SHT30;58692;43.212;27.908;2024-01-07T01:47:01;13.25;81.66
71039;SHT30;58692;43.212;27.908;2024-01-07T01:49:27;13.14;82.23
71039;SHT30;58692;43.212;27.908;2024-01-07T01:51:53;13.02;82.58
71039;SHT30;58692;43.212;27.908;2024-01-07T01:54:20;12.95;82.93
71039;SHT30;58692;43.212;27.908;2024-01-07T01:56:47;12.81;83.39
71039;SHT30;58692;43.212;27.908;2024-01-07T01:59:14;12.77;83.77
71039;SHT30;58692;43.212;27.908;2024-01-07T02:01:40;12.70;83.99
71039;SHT30;58692;43.212;27.908;2024-01-07T02:04:06;12.64;84.35
71039;SHT30;58692;43.212;27.908;2024-01-07T02:06:33;12.53;84.96
71039;SHT30;58692;43.212;27.908;2024-01-07T02:08:58;12.41;85.46
71039;SHT30;58692;43.212;27.908;2024-01-07T02:11:24;12.34;85.67
71039;SHT30;58692;43.212;27.908;2024-01-07T02:13:50;12.26;86.15
71039;SHT30;58692;43.212;27.908;2024-01-07T02:16:16;12.20;86.20
71039;SHT30;58692;43.212;27.908;2024-01-07T02:18:43;12.16;86.44
71039;SHT30;58692;43.212;27.908;2024-01-07T02:21:09;12.18;86.37
71039;SHT30;58692;43.212;27.908;2024-01-07T02:23:35;12.20;86.27
71039;SHT30;58692;43.212;27.908;2024-01-07T02:26:01;12.34;85.48
71039;SHT30;58692;43.212;27.908;2024-01-07T02:28:27;12.44;84.94
71039;SHT30;58692;43.212;27.908;2024-01-07T02:30:52;12.49;84.70
71039;SHT30;58692;43.212;27.908;2024-01-07T02:33:18;12.61;84.04
71039;SHT30;58692;43.212;27.908;2024-01-07T02:35:44;12.74;83.37
71039;SHT30;58692;43.212;27.908;2024-01-07T02:38:09;12.76;83.45
71039;SHT30;58692;43.212;27.908;2024-01-07T02:40:35;12.91;82.64
71039;SHT30;58692;43.212;27.908;2024-01-07T02:43:00;12.90;82.50
71039;SHT30;58692;43.212;27.908;2024-01-07T02:45:26;12.91;82.53
71039;SHT30;58692;43.212;27.908;2024-01-07T02:47:51;12.85;82.73
71039;SHT30;58692;43.212;27.908;2024-01-07T02:50:17;12.81;82.81
71039;SHT30;58692;43.212;27.908;2024-01-07T02:52:43;12.84;82.81
71039;SHT30;58692;43.212;27.908;2024-01-07T02:55:08;12.76;83.07
71039;SHT30;58692;43.212;27.908;2024-01-07T02:57:34;12.76;83.14
71039;SHT30;58692;43.212;27.908;2024-01-07T03:00:00;12.70;83.35
71039;SHT30;58692;43.212;27.908;2024-01-07T03:02:26;12.70;83.43
71039;SHT30;58692;43.212;27.908;2024-01-07T03:04:51;12.64;83.58
71039;SHT30;58692;43.212;27.908;2024-01-07T03:07:17;12.67;83.67
71039;SHT30;58692;43.212;27.908;2024-01-07T03:09:43;12.61;83.86
71039;SHT30;58692;43.212;27.908;2024-01-07T03:12:08;12.56;84.00
71039;SHT30;58692;43.212;27.908;2024-01-07T03:14:34;12.54;84.29
71039;SHT30;58692;43.212;27.908;2024-01-07T03:16:59;12.51;84.51
71039;SHT30;58692;43.212;27.908;2024-01-07T03:19:25;12.46;84.72
71039;SHT30;58692;43.212;27.908;2024-01-07T03:21:51;12.44;84.93
71039;SHT30;58692;43.212;27.908;2024-01-07T03:24:16;12.43;84.95
71039;SHT30;58692;43.212;27.908;2024-01-07T03:26:42;12.40;84.97
71039;SHT30;58692;43.212;27.908;2024-01-07T03:29:07;12.37;85.09
71039;SHT30;58692;43.212;27.908;2024-01-07T03:31:33;12.37;85.06
71039;SHT30;58692;43.212;27.908;2024-01-07T03:33:59;12.33;85.10
71039;SHT30;58692;43.212;27.908;2024-01-07T03:36:25;12.32;85.07
71039;SHT30;58692;43.212;27.908;2024-01-07T03:38:50;12.36;84.89
71039;SHT30;58692;43.212;27.908;2024-01-07T03:41:18;12.36;84.70
71039;SHT30;58692;43.212;27.908;2024-01-07T03:43:45;12.34;84.72
71039;SHT30;58692;43.212;27.908;2024-01-07T03:46:11;12.40;84.58
71039;SHT30;58692;43.212;27.908;2024-01-07T03:48:36;12.33;84.37
71039;SHT30;58692;43.212;27.908;2024-01-07T03:51:02;12.30;84.02
71039;SHT30;58692;43.212;27.908;2024-01-07T03:53:28;12.33;83.71
71039;SHT30;58692;43.212;27.908;2024-01-07T03:55:54;12.46;82.95
71039;SHT30;58692;43.212;27.908;2024-01-07T03:58:19;12.56;82.44
71039;SHT30;58692;43.212;27.908;2024-01-07T04:00:45;12.51;82.43
71039;SHT30;58692;43.212;27.908;2024-01-07T04:03:11;12.54;82.11
71039;SHT30;58692;43.212;27.908;2024-01-07T04:05:36;12.53;82.09
71039;SHT30;58692;43.212;27.908;2024-01-07T04:08:03;12.56;81.55
71039;SHT30;58692;43.212;27.908;2024-01-07T04:10:29;12.57;81.28
71039;SHT30;58692;43.212;27.908;2024-01-07T04:12:55;12.63;80.72
71039;SHT30;58692;43.212;27.908;2024-01-07T04:15:21;12.70;79.82
71039;SHT30;58692;43.212;27.908;2024-01-07T04:17:47;12.64;80.12
71039;SHT30;58692;43.212;27.908;2024-01-07T04:20:13;12.65;80.43
71039;SHT30;58692;43.212;27.908;2024-01-07T04:22:39;12.61;80.39
71039;SHT30;58692;43.212;27.908;2024-01-07T04:25:05;12.60;80.29
71039;SHT30;58692;43.212;27.908;2024-01-07T04:27:34;12.60;80.44
71039;SHT30;58692;43.212;27.908;2024-01-07T04:30:01;12.59;80.19
71039;SHT30;58692;43.212;27.908;2024-01-07T04:32:26;12.64;79.47
71039;SHT30;58692;43.212;27.908;2024-01-07T04:34:52;12.67;79.21
71039;SHT30;58692;43.212;27.908;2024-01-07T04:37:17;12.64;79.23
71039;SHT30;58692;43.212;27.908;2024-01-07T04:39:43;12.74;78.29
71039;SHT30;58692;43.212;27.908;2024-01-07T04:42:09;12.73;78.42
71039;SHT30;58692;43.212;27.908;2024-01-07T04:44:34;12.80;78.25
71039;SHT30;58692;43.212;27.908;2024-01-07T04:47:00;12.77;78.32
71039;SHT30;58692;43.212;27.908;2024-01-07T04:49:25;12.76;78.47
71039;SHT30;58692;43.212;27.908;2024-01-07T04:51:51;12.80;78.12
71039;SHT30;58692;43.212;27.908;2024-01-07T04:54:17;12.83;77.99
71039;SHT30;58692;43.212;27.908;2024-01-07T04:56:44;12.83;77.75
71039;SHT30;58692;43.212;27.908;2024-01-07T04:59:09;12.79;78.24
71039;SHT30;58692;43.212;27.908;2024-01-07T05:01:35;12.73;78.90
71039;SHT30;58692;43.212;27.908;2024-01-07T05:04:02;12.65;79.06
71039;SHT30;58692;43.212;27.908;2024-01-07T05:06:27;12.63;79.75
71039;SHT30;58692;43.212;27.908;2024-01-07T05:08:53;12.56;80.03
71039;SHT30;58692;43.212;27.908;2024-01-07T05:11:19;12.51;80.09
71039;SHT30;58692;43.212;27.908;2024-01-07T05:13:44;12.50;79.93
71039;SHT30;58692;43.212;27.908;2024-01-07T05:16:19;12.54;79.97
71039;SHT30;58692;43.212;27.908;2024-01-07T05:18:45;12.56;79.38
71039;SHT30;58692;43.212;27.908;2024-01-07T05:21:15;12.50;80.08
71039;SHT30;58692;43.212;27.908;2024-01-07T05:23:41;12.49;79.84
71039;SHT30;58692;43.212;27.908;2024-01-07T05:26:07;12.53;79.43
71039;SHT30;58692;43.212;27.908;2024-01-07T05:28:32;12.53;79.65
71039;SHT30;58692;43.212;27.908;2024-01-07T05:30:58;12.61;78.60
71039;SHT30;58692;43.212;27.908;2024-01-07T05:33:24;12.70;78.01
71039;SHT30;58692;43.212;27.908;2024-01-07T05:35:49;12.73;77.71
71039;SHT30;58692;43.212;27.908;2024-01-07T05:38:15;12.74;77.58
71039;SHT30;58692;43.212;27.908;2024-01-07T05:40:40;12.76;77.64
71039;SHT30;58692;43.212;27.908;2024-01-07T05:43:06;12.71;77.97
71039;SHT30;58692;43.212;27.908;2024-01-07T05:45:31;12.70;78.03
71039;SHT30;58692;43.212;27.908;2024-01-07T05:47:57;12.64;78.35
71039;SHT30;58692;43.212;27.908;2024-01-07T05:50:22;12.64;78.12
71039;SHT30;58692;43.212;27.908;2024-01-07T05:52:48;12.67;78.19
71039;SHT30;58692;43.212;27.908;2024-01-07T05:55:14;12.68;78.09
71039;SHT30;58692;43.212;27.908;2024-01-07T05:57:39;12.67;77.99
71039;SHT30;58692;43.212;27.908;2024-01-07T06:00:05;12.65;77.98
71039;SHT30;58692;43.212;27.908;2024-01-07T06:02:31;12.65;78.07
71039;SHT30;58692;43.212;27.908;2024-01-07T06:04:57;12.68;77.94
71039;SHT30;58692;43.212;27.908;2024-01-07T06:07:22;12.70;77.91
71039;SHT30;58692;43.212;27.908;2024-01-07T06:09:48;12.79;77.16
71039;SHT30;58692;43.212;27.908;2024-01-07T06:12:13;12.79;77.25
71039;SHT30;58692;43.212;27.908;2024-01-07T06:14:39;12.83;76.87
71039;SHT30;58692;43.212;27.908;2024-01-07T06:17:05;12.91;76.63
71039;SHT30;58692;43.212;27.908;2024-01-07T06:19:30;12.91;76.61
71039;SHT30;58692;43.212;27.908;2024-01-07T06:21:56;12.88;76.68
71039;SHT30;58692;43.212;27.908;2024-01-07T06:24:22;12.88;76.67
71039;SHT30;58692;43.212;27.908;2024-01-07T06:26:47;12.88;76.76
71039;SHT30;58692;43.212;27.908;2024-01-07T06:29:13;12.93;76.64
71039;SHT30;58692;43.212;27.908;2024-01-07T06:31:47;12.95;76.68
71039;SHT30;58692;43.212;27.908;2024-01-07T06:34:14;12.95;76.95
71039;SHT30;58692;43.212;27.908;2024-01-07T06:36:40;12.88;77.36
71039;SHT30;58692;43.212;27.908;2024-01-07T06:39:07;12.81;78.18
71039;SHT30;58692;43.212;27.908;2024-01-07T06:41:34;12.70;79.12
71039;SHT30;58692;43.212;27.908;2024-01-07T06:43:59;12.60;79.91
71039;SHT30;58692;43.212;27.908;2024-01-07T06:46:25;12.57;80.24
71039;SHT30;58692;43.212;27.908;2024-01-07T06:48:51;12.59;80.24
71039;SHT30;58692;43.212;27.908;2024-01-07T06:51:16;12.61;79.88
71039;SHT30;58692;43.212;27.908;2024-01-07T06:53:42;12.67;79.60
71039;SHT30;58692;43.212;27.908;2024-01-07T06:56:07;12.68;79.47
71039;SHT30;58692;43.212;27.908;2024-01-07T06:58:33;12.70;79.20
71039;SHT30;58692;43.212;27.908;2024-01-07T07:00:59;12.73;78.84
71039;SHT30;58692;43.212;27.908;2024-01-07T07:03:24;12.76;78.91
71039;SHT30;58692;43.212;27.908;2024-01-07T07:05:50;12.77;78.93
71039;SHT30;58692;43.212;27.908;2024-01-07T07:08:16;12.74;79.10
71039;SHT30;58692;43.212;27.908;2024-01-07T07:10:42;12.76;79.24
71039;SHT30;58692;43.212;27.908;2024-01-07T07:13:07;12.73;79.32
71039;SHT30;58692;43.212;27.908;2024-01-07T07:15:34;12.74;79.38
71039;SHT30;58692;43.212;27.908;2024-01-07T07:17:59;12.74;79.47
71039;SHT30;58692;43.212;27.908;2024-01-07T07:20:25;12.85;79.28
71039;SHT30;58692;43.212;27.908;2024-01-07T07:22:50;12.79;79.27
71039;SHT30;58692;43.212;27.908;2024-01-07T07:25:16;12.90;78.97
71039;SHT30;58692;43.212;27.908;2024-01-07T07:27:42;12.97;78.02
71039;SHT30;58692;43.212;27.908;2024-01-07T07:30:08;12.94;77.80
71039;SHT30;58692;43.212;27.908;2024-01-07T07:32:34;12.91;77.96
71039;SHT30;58692;43.212;27.908;2024-01-07T07:35:01;12.98;77.40
71039;SHT30;58692;43.212;27.908;2024-01-07T07:37:26;13.05;77.38
71039;SHT30;58692;43.212;27.908;2024-01-07T07:39:52;13.01;77.33
71039;SHT30;58692;43.212;27.908;2024-01-07T07:42:17;12.98;77.34
71039;SHT30;58692;43.212;27.908;2024-01-07T07:44:43;12.97;77.50
71039;SHT30;58692;43.212;27.908;2024-01-07T07:47:09;12.93;78.14
71039;SHT30;58692;43.212;27.908;2024-01-07T07:49:37;12.93;78.52
71039;SHT30;58692;43.212;27.908;2024-01-07T07:52:08;12.91;78.96
71039;SHT30;58692;43.212;27.908;2024-01-07T07:54:37;12.98;78.85
71039;SHT30;58692;43.212;27.908;2024-01-07T07:57:03;12.97;78.94
71039;SHT30;58692;43.212;27.908;2024-01-07T07:59:29;12.93;79.14
71039;SHT30;58692;43.212;27.908;2024-01-07T08:01:54;12.91;79.54
71039;SHT30;58692;43.212;27.908;2024-01-07T08:04:20;12.90;79.11
71039;SHT30;58692;43.212;27.908;2024-01-07T08:06:46;12.93;79.40
71039;SHT30;58692;43.212;27.908;2024-01-07T08:09:12;12.95;78.98
71039;SHT30;58692;43.212;27.908;2024-01-07T08:11:37;12.90;79.14
71039;SHT30;58692;43.212;27.908;2024-01-07T08:14:03;12.98;77.56
71039;SHT30;58692;43.212;27.908;2024-01-07T08:16:31;13.12;76.95
71039;SHT30;58692;43.212;27.908;2024-01-07T08:18:57;13.28;75.02
71039;SHT30;58692;43.212;27.908;2024-01-07T08:21:23;13.39;74.48
71039;SHT30;58692;43.212;27.908;2024-01-07T08:23:50;13.49;73.69
71039;SHT30;58692;43.212;27.908;2024-01-07T08:26:19;13.63;73.50
71039;SHT30;58692;43.212;27.908;2024-01-07T08:28:45;13.69;73.85
71039;SHT30;58692;43.212;27.908;2024-01-07T08:31:11;13.58;74.08
71039;SHT30;58692;43.212;27.908;2024-01-07T08:33:36;13.45;74.74
71039;SHT30;58692;43.212;27.908;2024-01-07T08:36:02;13.16;76.11
71039;SHT30;58692;43.212;27.908;2024-01-07T08:38:28;12.98;77.14
71039;SHT30;58692;43.212;27.908;2024-01-07T08:40:53;12.84;77.66
71039;SHT30;58692;43.212;27.908;2024-01-07T08:43:19;12.83;77.66
71039;SHT30;58692;43.212;27.908;2024-01-07T08:45:45;12.73;77.76
71039;SHT30;58692;43.212;27.908;2024-01-07T08:48:10;12.70;77.39
71039;SHT30;58692;43.212;27.908;2024-01-07T08:50:37;12.63;77.76
71039;SHT30;58692;43.212;27.908;2024-01-07T08:53:03;12.54;78.06
71039;SHT30;58692;43.212;27.908;2024-01-07T08:55:29;12.60;78.01
71039;SHT30;58692;43.212;27.908;2024-01-07T08:57:54;12.64;77.88
71039;SHT30;58692;43.212;27.908;2024-01-07T09:00:20;12.57;77.77
71039;SHT30;58692;43.212;27.908;2024-01-07T09:02:51;12.85;77.50
71039;SHT30;58692;43.212;27.908;2024-01-07T09:05:17;12.98;76.83
71039;SHT30;58692;43.212;27.908;2024-01-07T09:07:42;12.90;77.32
71039;SHT30;58692;43.212;27.908;2024-01-07T09:10:08;12.84;78.01
71039;SHT30;58692;43.212;27.908;2024-01-07T09:12:36;12.80;78.58
71039;SHT30;58692;43.212;27.908;2024-01-07T09:15:04;12.88;78.65
71039;SHT30;58692;43.212;27.908;2024-01-07T09:17:34;12.73;79.48
71039;SHT30;58692;43.212;27.908;2024-01-07T09:20:01;12.61;80.25
71039;SHT30;58692;43.212;27.908;2024-01-07T09:22:26;12.39;81.29
71039;SHT30;58692;43.212;27.908;2024-01-07T09:24:52;12.33;81.92
71039;SHT30;58692;43.212;27.908;2024-01-07T09:27:17;12.43;81.82
71039;SHT30;58692;43.212;27.908;2024-01-07T09:29:43;12.30;82.49
71039;SHT30;58692;43.212;27.908;2024-01-07T09:32:09;12.33;82.91
71039;SHT30;58692;43.212;27.908;2024-01-07T09:34:34;12.37;82.83
71039;SHT30;58692;43.212;27.908;2024-01-07T09:37:00;12.34;83.03
71039;SHT30;58692;43.212;27.908;2024-01-07T09:39:25;12.26;83.28
71039;SHT30;58692;43.212;27.908;2024-01-07T09:41:51;12.15;83.57
71039;SHT30;58692;43.212;27.908;2024-01-07T09:44:18;12.03;84.13
71039;SHT30;58692;43.212;27.908;2024-01-07T09:46:44;11.85;84.38
71039;SHT30;58692;43.212;27.908;2024-01-07T09:49:14;11.82;84.48
71039;SHT30;58692;43.212;27.908;2024-01-07T09:51:41;11.92;84.38
71039;SHT30;58692;43.212;27.908;2024-01-07T09:54:11;11.85;83.98
71039;SHT30;58692;43.212;27.908;2024-01-07T09:56:43;11.77;84.59
71039;SHT30;58692;43.212;27.908;2024-01-07T09:59:14;11.88;84.26
71039;SHT30;58692;43.212;27.908;2024-01-07T10:01:41;11.89;84.45
71039;SHT30;58692;43.212;27.908;2024-01-07T10:04:06;11.89;84.57
71039;SHT30;58692;43.212;27.908;2024-01-07T10:06:32;11.92;84.64
71039;SHT30;58692;43.212;27.908;2024-01-07T10:08:58;11.96;84.52
71039;SHT30;58692;43.212;27.908;2024-01-07T10:11:25;11.90;84.65
71039;SHT30;58692;43.212;27.908;2024-01-07T10:13:50;12.06;84.53
71039;SHT30;58692;43.212;27.908;2024-01-07T10:16:17;12.03;84.29
71039;SHT30;58692;43.212;27.908;2024-01-07T10:18:43;12.09;84.12
71039;SHT30;58692;43.212;27.908;2024-01-07T10:21:08;12.20;83.96
71039;SHT30;58692;43.212;27.908;2024-01-07T10:23:34;12.09;83.88
71039;SHT30;58692;43.212;27.908;2024-01-07T10:26:00;12.18;83.89
71039;SHT30;58692;43.212;27.908;2024-01-07T10:28:27;12.19;83.86
71039;SHT30;58692;43.212;27.908;2024-01-07T10:30:53;12.32;83.44
71039;SHT30;58692;43.212;27.908;2024-01-07T10:33:19;12.39;83.33
71039;SHT30;58692;43.212;27.908;2024-01-07T10:35:52;12.25;83.20
71039;SHT30;58692;43.212;27.908;2024-01-07T10:38:21;12.25;83.12
71039;SHT30;58692;43.212;27.908;2024-01-07T10:40:48;12.36;83.06
71039;SHT30;58692;43.212;27.908;2024-01-07T10:43:15;12.57;81.91
71039;SHT30;58692;43.212;27.908;2024-01-07T10:45:44;12.61;82.00
71039;SHT30;58692;43.212;27.908;2024-01-07T10:48:17;12.97;81.05
71039;SHT30;58692;43.212;27.908;2024-01-07T10:50:45;13.36;79.66
71039;SHT30;58692;43.212;27.908;2024-01-07T10:53:14;14.03;77.16
71039;SHT30;58692;43.212;27.908;2024-01-07T10:55:49;15.19;74.02
71039;SHT30;58692;43.212;27.908;2024-01-07T10:58:19;15.16;72.53
71039;SHT30;58692;43.212;27.908;2024-01-07T11:00:46;15.79;70.84
71039;SHT30;58692;43.212;27.908;2024-01-07T11:03:18;16.35;69.03
71039;SHT30;58692;43.212;27.908;2024-01-07T11:06:03;16.15;69.02
71039;SHT30;58692;43.212;27.908;2024-01-07T11:11:06;16.37;68.17
71039;SHT30;58692;43.212;27.908;2024-01-07T11:13:35;16.45;67.83
71039;SHT30;58692;43.212;27.908;2024-01-07T11:16:02;17.12;66.78
71039;SHT30;58692;43.212;27.908;2024-01-07T11:18:28;16.99;65.78
71039;SHT30;58692;43.212;27.908;2024-01-07T11:21:00;16.72;66.28
71039;SHT30;58692;43.212;27.908;2024-01-07T11:23:28;17.12;65.35
71039;SHT30;58692;43.212;27.908;2024-01-07T11:25:56;16.93;65.67
71039;SHT30;58692;43.212;27.908;2024-01-07T11:28:43;17.31;64.82
71039;SHT30;58692;43.212;27.908;2024-01-07T11:31:08;16.69;66.10
71039;SHT30;58692;43.212;27.908;2024-01-07T11:33:36;16.72;66.62
71039;SHT30;58692;43.212;27.908;2024-01-07T11:36:03;16.96;66.38
71039;SHT30;58692;43.212;27.908;2024-01-07T11:38:30;16.54;67.27
71039;SHT30;58692;43.212;27.908;2024-01-07T11:40:57;15.62;69.50
71039;SHT30;58692;43.212;27.908;2024-01-07T11:43:22;15.52;70.35
71039;SHT30;58692;43.212;27.908;2024-01-07T11:45:50;15.09;71.54
71039;SHT30;58692;43.212;27.908;2024-01-07T11:48:17;14.64;73.30
71039;SHT30;58692;43.212;27.908;2024-01-07T11:50:43;14.38;74.49
71039;SHT30;58692;43.212;27.908;2024-01-07T11:53:08;14.64;73.23
71039;SHT30;58692;43.212;27.908;2024-01-07T11:55:35;14.75;73.14
71039;SHT30;58692;43.212;27.908;2024-01-07T11:58:03;14.91;72.77
71039;SHT30;58692;43.212;27.908;2024-01-07T12:00:33;14.98;72.74
71039;SHT30;58692;43.212;27.908;2024-01-07T12:03:00;15.12;71.82
71039;SHT30;58692;43.212;27.908;2024-01-07T12:05:27;15.32;71.64
71039;SHT30;58692;43.212;27.908;2024-01-07T12:07:53;15.39;71.03
71039;SHT30;58692;43.212;27.908;2024-01-07T12:10:19;15.52;70.57
71039;SHT30;58692;43.212;27.908;2024-01-07T12:12:45;15.63;69.76
71039;SHT30;58692;43.212;27.908;2024-01-07T12:15:12;15.49;70.53
71039;SHT30;58692;43.212;27.908;2024-01-07T12:17:40;15.16;71.75
71039;SHT30;58692;43.212;27.908;2024-01-07T12:20:06;14.85;72.84
71039;SHT30;58692;43.212;27.908;2024-01-07T12:22:33;14.89;72.76
71039;SHT30;58692;43.212;27.908;2024-01-07T12:25:02;15.06;72.46
71039;SHT30;58692;43.212;27.908;2024-01-07T12:27:29;14.67;74.06
71039;SHT30;58692;43.212;27.908;2024-01-07T12:29:58;14.45;74.77
71039;SHT30;58692;43.212;27.908;2024-01-07T12:32:28;13.76;76.89
71039;SHT30;58692;43.212;27.908;2024-01-07T12:34:53;13.44;78.16
71039;SHT30;58692;43.212;27.908;2024-01-07T12:37:22;13.61;78.13
71039;SHT30;58692;43.212;27.908;2024-01-07T12:39:47;14.31;76.29
71039;SHT30;58692;43.212;27.908;2024-01-07T12:42:13;14.58;75.25
71039;SHT30;58692;43.212;27.908;2024-01-07T12:44:39;14.78;74.63
71039;SHT30;58692;43.212;27.908;2024-01-07T12:47:04;14.79;74.42
71039;SHT30;58692;43.212;27.908;2024-01-07T12:49:30;14.96;74.20
71039;SHT30;58692;43.212;27.908;2024-01-07T12:51:56;15.18;73.47
71039;SHT30;58692;43.212;27.908;2024-01-07T12:54:22;15.26;73.22
71039;SHT30;58692;43.212;27.908;2024-01-07T12:56:50;15.09;73.72
71039;SHT30;58692;43.212;27.908;2024-01-07T12:59:16;14.89;73.90
71039;SHT30;58692;43.212;27.908;2024-01-07T13:01:41;15.01;73.58
71039;SHT30;58692;43.212;27.908;2024-01-07T13:04:07;14.96;73.43
71039;SHT30;58692;43.212;27.908;2024-01-07T13:06:35;14.93;73.45
71039;SHT30;58692;43.212;27.908;2024-01-07T13:09:00;14.85;73.12
71039;SHT30;58692;43.212;27.908;2024-01-07T13:11:29;14.99;72.69
71039;SHT30;58692;43.212;27.908;2024-01-07T13:13:56;14.89;72.54
71039;SHT30;58692;43.212;27.908;2024-01-07T13:16:26;14.89;72.40
71039;SHT30;58692;43.212;27.908;2024-01-07T13:18:53;14.91;72.39
71039;SHT30;58692;43.212;27.908;2024-01-07T13:21:19;14.74;72.79
71039;SHT30;58692;43.212;27.908;2024-01-07T13:23:45;14.89;72.75
71039;SHT30;58692;43.212;27.908;2024-01-07T13:26:11;14.91;72.42
71039;SHT30;58692;43.212;27.908;2024-01-07T13:28:37;14.78;72.19
71039;SHT30;58692;43.212;27.908;2024-01-07T13:31:03;14.79;72.65
71039;SHT30;58692;43.212;27.908;2024-01-07T13:33:29;14.74;72.93
71039;SHT30;58692;43.212;27.908;2024-01-07T13:35:55;14.75;73.24
71039;SHT30;58692;43.212;27.908;2024-01-07T13:38:20;14.65;73.56
71039;SHT30;58692;43.212;27.908;2024-01-07T13:40:47;14.64;73.79
71039;SHT30;58692;43.212;27.908;2024-01-07T13:43:13;14.72;73.73
71039;SHT30;58692;43.212;27.908;2024-01-07T13:45:38;14.61;74.59
71039;SHT30;58692;43.212;27.908;2024-01-07T13:48:04;14.40;76.17
71039;SHT30;58692;43.212;27.908;2024-01-07T13:50:32;14.16;77.30
71039;SHT30;58692;43.212;27.908;2024-01-07T13:52:58;13.87;78.34
71039;SHT30;58692;43.212;27.908;2024-01-07T13:55:24;13.82;78.45
71039;SHT30;58692;43.212;27.908;2024-01-07T13:57:50;13.89;78.29
71039;SHT30;58692;43.212;27.908;2024-01-07T14:00:15;13.75;78.50
71039;SHT30;58692;43.212;27.908;2024-01-07T14:02:44;13.72;78.70
71039;SHT30;58692;43.212;27.908;2024-01-07T14:05:11;13.63;79.14
71039;SHT30;58692;43.212;27.908;2024-01-07T14:07:38;13.59;79.23
71039;SHT30;58692;43.212;27.908;2024-01-07T14:10:04;13.55;79.53
71039;SHT30;58692;43.212;27.908;2024-01-07T14:12:31;13.54;79.46
71039;SHT30;58692;43.212;27.908;2024-01-07T14:14:57;13.52;79.65
71039;SHT30;58692;43.212;27.908;2024-01-07T14:17:24;13.52;79.86
71039;SHT30;58692;43.212;27.908;2024-01-07T14:19:50;13.52;79.93
71039;SHT30;58692;43.212;27.908;2024-01-07T14:22:17;13.44;80.29
71039;SHT30;58692;43.212;27.908;2024-01-07T14:24:43;13.35;80.64
71039;SHT30;58692;43.212;27.908;2024-01-07T14:27:09;13.25;81.26
71039;SHT30;58692;43.212;27.908;2024-01-07T14:29:36;13.21;81.68
71039;SHT30;58692;43.212;27.908;2024-01-07T14:32:04;13.05;82.48
71039;SHT30;58692;43.212;27.908;2024-01-07T14:34:30;12.90;83.16
71039;SHT30;58692;43.212;27.908;2024-01-07T14:36:56;12.88;83.26
71039;SHT30;58692;43.212;27.908;2024-01-07T14:39:21;12.83;83.93
71039;SHT30;58692;43.212;27.908;2024-01-07T14:41:47;12.71;84.62
71039;SHT30;58692;43.212;27.908;2024-01-07T14:44:13;12.63;85.05
71039;SHT30;58692;43.212;27.908;2024-01-07T14:46:38;12.53;85.50
71039;SHT30;58692;43.212;27.908;2024-01-07T14:49:04;12.57;85.66
71039;SHT30;58692;43.212;27.908;2024-01-07T14:51:30;12.54;85.85
71039;SHT30;58692;43.212;27.908;2024-01-07T14:53:57;12.51;85.96
71039;SHT30;58692;43.212;27.908;2024-01-07T14:56:22;12.47;86.37
71039;SHT30;58692;43.212;27.908;2024-01-07T14:58:48;12.53;86.35
71039;SHT30;58692;43.212;27.908;2024-01-07T15:01:14;12.43;86.83
71039;SHT30;58692;43.212;27.908;2024-01-07T15:03:41;12.37;87.22
71039;SHT30;58692;43.212;27.908;2024-01-07T15:06:06;12.43;87.16
71039;SHT30;58692;43.212;27.908;2024-01-07T15:08:34;12.46;87.52
71039;SHT30;58692;43.212;27.908;2024-01-07T15:11:00;12.41;88.22